Flight Track Log - Related Links

Times and Time Zones

All times are in EDT time to prevent confusion due to time zone crossing. See the EGF2882 flight status page for this flight to view local times or setup timezone preferences in your user account.

Time Position Orientation Groundspeed Altitude Reporting Facility
EDT Latitude Longitude Course Direction KTS MPH feet Rate Location/Type
Sat 03:50:06 PM 32.9000 -97.0333 57° Northeast 155 178 1,300  Level Dallas / Fort Worth TRACON
Sat 03:51:48 PM 33.0000 -97.0167 North 214 246 4,600 2,000 Climbing Dallas / Fort Worth TRACON
Sat 03:52:00 PM 32.7984 -96.7660 53° Northeast  Level FlightAware Approximate
Sat 03:52:42 PM 33.0500 -97.0167 360° North 249 287 6,500  Level Dallas / Fort Worth TRACON
Sat 03:53:00 PM 32.8657 -96.6597 52° Northeast  Level FlightAware Approximate
Sat 03:54:00 PM 32.9353 -96.5554 52° Northeast  Level FlightAware Approximate
Sat 03:55:00 PM 32.9977 -96.4448 57° Northeast  Level FlightAware Approximate
Sat 03:55:02 PM 33.0908 -96.8308 75° East 295 339 10,000  Level Fort Worth Center
Sat 03:56:02 PM 33.0883 -96.7267 92° East 330 380 10,000 800 Level Fort Worth Center
Sat 03:57:02 PM 33.0894 -96.5953 89° East 351 404 11,600 1,600 Climbing Fort Worth Center
Sat 03:58:02 PM 33.0844 -96.4761 93° East 356 410 13,200 1,550 Climbing Fort Worth Center
Sat 03:59:02 PM 33.0836 -96.3672 90° East 362 417 14,700 1,450 Climbing Fort Worth Center
Sat 04:00:02 PM 33.1097 -96.2403 76° East 362 417 16,100 1,150 Climbing Fort Worth Center
Sat 04:01:02 PM 33.1442 -96.1233 71° East 368 423 17,000 900 Climbing Fort Worth Center
Sat 04:02:02 PM 33.1825 -96.0011 69° East 378 435 17,900 950 Climbing Fort Worth Center
Sat 04:03:02 PM 33.2164 -95.8764 72° East 389 448 18,900 1,000 Climbing Fort Worth Center
Sat 04:04:02 PM 33.2544 -95.7492 70° East 394 453 19,900 1,000 Climbing Fort Worth Center
Sat 04:05:02 PM 33.2903 -95.6192 72° East 403 464 20,900 1,000 Climbing Fort Worth Center
Sat 04:06:02 PM 33.3300 -95.4842 71° East 410 472 21,900 1,000 Climbing Fort Worth Center
Sat 04:07:02 PM 33.3656 -95.3492 72° East 416 479 22,900 1,000 Climbing Fort Worth Center
Sat 04:08:02 PM 33.4028 -95.2114 72° East 426 490 23,900 1,000 Climbing Fort Worth Center
Sat 04:09:02 PM 33.4461 -95.0683 70° East 431 496 24,900 550 Climbing Fort Worth Center
Sat 04:10:02 PM 33.4892 -94.9228 70° East 447 514 25,000 50 Climbing Fort Worth Center
Sat 04:11:02 PM 33.5342 -94.7719 70° East 463 533 25,000  Level Fort Worth Center
Sat 04:12:02 PM 33.5789 -94.6161 71° East 481 554 25,000  Level Fort Worth Center
Sat 04:13:02 PM 33.6231 -94.4525 72° East 494 568 25,000  Level Fort Worth Center
Sat 04:14:02 PM 33.6614 -94.3114 72° East 499 574 25,000  Level Fort Worth Center
Sat 04:15:02 PM 33.7200 -94.1497 66° East 505 581 25,000  Level Fort Worth Center
Sat 04:16:02 PM 33.7911 -94.0044 59° Northeast 505 581 25,000 -450 Level Fort Worth Center
Sat 04:17:02 PM 33.8644 -93.8642 58° Northeast 500 575 24,100 -1,000 Descending Fort Worth Center
Sat 04:17:44 PM 33.9200 -93.7514 59° Northeast 494 568 23,300 -1,059 Descending Memphis Center
Sat 04:18:44 PM 33.9864 -93.6164 59° Northeast 479 551 22,300 -1,000 Descending Memphis Center
Sat 04:19:44 PM 34.0500 -93.4858 60° Northeast 462 532 21,300 -1,000 Descending Memphis Center
Sat 04:20:44 PM 34.1136 -93.3628 58° Northeast 442 509 20,300 -1,400 Descending Memphis Center
Sat 04:21:44 PM 34.1731 -93.2367 60° Northeast 437 503 18,500 -2,200 Descending Memphis Center
Sat 04:22:44 PM 34.2319 -93.1156 60° Northeast 431 496 15,900 -2,692 Descending Memphis Center
Sat 04:23:02 PM 34.2475 -93.0833 60° Northeast 416 479 15,000 -2,857 Descending Memphis Center
Sat 04:23:26 PM 34.2672 -93.0339 64° Northeast 397 457 13,900 -2,571 Descending Memphis Center
Sat 04:23:44 PM 34.2867 -93.0042 52° Northeast 407 468 13,200 -2,459 Descending Memphis Center
Sat 04:24:27 PM 34.3214 -92.9350 59° Northeast 360 414 11,400 -2,300 Descending Memphis Center
Sat 04:24:44 PM 34.3344 -92.9075 60° Northeast 378 435 10,900 -1,500 Descending Memphis Center
Sat 04:25:27 PM 34.3756 -92.8358 55° Northeast 320 368 9,900 -1,100 Descending Memphis Center
Sat 04:25:44 PM 34.3886 -92.8161 51° Northeast 353 406 9,800 -1,377 Descending Memphis Center
Sat 04:26:28 PM 34.4211 -92.7542 58° Northeast 262 302 8,500 -1,400 Descending Memphis Center
Sat 04:26:44 PM 34.4297 -92.7417 50° Northeast 305 351 8,400 -1,672 Descending Memphis Center
Sat 04:27:29 PM 34.4578 -92.6819 60° Northeast 258 297 6,800 -1,800 Descending Memphis Center
Sat 04:27:44 PM 34.4686 -92.6672 48° Northeast 269 310 6,600 -1,600 Descending Memphis Center
Sat 04:28:29 PM 34.4989 -92.6075 58° Northeast 248 285 5,200 -1,500 Descending Memphis Center
Sat 04:28:44 PM 34.5053 -92.5978 51° Northeast 255 293 5,100 -984 Descending Memphis Center
Sat 04:29:30 PM 34.5356 -92.5406 57° Northeast 248 285 4,200 -900 Descending Memphis Center
Sat 04:30:24 PM 34.5722 -92.4708 57° Northeast 257 296 3,600 -568 Descending Memphis Center
Sat 04:30:44 PM 34.5808 -92.4533 59° Northeast 250 288 3,500 -590 Descending Memphis Center
Sat 04:31:25 PM 34.6067 -92.4011 59° Northeast 248 285 3,000 -600 Descending Memphis Center
Sat 04:31:44 PM 34.6175 -92.3836 53° Northeast 250 288 2,900 -316 Descending Memphis Center

Login

Don't have an account? Register now (free) for customized features, flight alerts, and more!